sensor_id;sensor_type;location;lat;lon;timestamp;P1;durP1;ratioP1;P2;durP2;ratioP2
4148;SDS011;2088;51.032;7.082;2023-04-23T00:00:31;19.60;;;9.60;;
4148;SDS011;2088;51.032;7.082;2023-04-23T00:03:01;16.90;;;8.80;;
4148;SDS011;2088;51.032;7.082;2023-04-23T00:05:33;17.00;;;10.30;;
4148;SDS011;2088;51.032;7.082;2023-04-23T00:08:01;14.20;;;9.13;;
4148;SDS011;2088;51.032;7.082;2023-04-23T00:10:28;13.23;;;9.03;;
4148;SDS011;2088;51.032;7.082;2023-04-23T00:12:57;16.20;;;10.67;;
4148;SDS011;2088;51.032;7.082;2023-04-23T00:15:24;16.20;;;10.07;;
4148;SDS011;2088;51.032;7.082;2023-04-23T00:17:52;19.80;;;10.60;;
4148;SDS011;2088;51.032;7.082;2023-04-23T00:20:19;16.73;;;8.43;;
4148;SDS011;2088;51.032;7.082;2023-04-23T00:22:46;16.70;;;11.47;;
4148;SDS011;2088;51.032;7.082;2023-04-23T00:25:14;14.10;;;8.60;;
4148;SDS011;2088;51.032;7.082;2023-04-23T00:27:41;19.37;;;10.87;;
4148;SDS011;2088;51.032;7.082;2023-04-23T00:30:09;18.83;;;10.50;;
4148;SDS011;2088;51.032;7.082;2023-04-23T00:32:36;15.50;;;9.83;;
4148;SDS011;2088;51.032;7.082;2023-04-23T00:35:04;15.30;;;9.17;;
4148;SDS011;2088;51.032;7.082;2023-04-23T00:37:31;19.23;;;10.07;;
4148;SDS011;2088;51.032;7.082;2023-04-23T00:39:58;25.93;;;9.47;;
4148;SDS011;2088;51.032;7.082;2023-04-23T00:42:26;21.90;;;10.30;;
4148;SDS011;2088;51.032;7.082;2023-04-23T00:44:53;18.73;;;10.30;;
4148;SDS011;2088;51.032;7.082;2023-04-23T00:47:22;16.07;;;9.47;;
4148;SDS011;2088;51.032;7.082;2023-04-23T00:49:49;14.50;;;10.30;;
4148;SDS011;2088;51.032;7.082;2023-04-23T00:52:19;15.03;;;10.33;;
4148;SDS011;2088;51.032;7.082;2023-04-23T00:54:46;16.47;;;9.80;;
4148;SDS011;2088;51.032;7.082;2023-04-23T00:57:13;15.77;;;10.60;;
4148;SDS011;2088;51.032;7.082;2023-04-23T00:59:41;21.40;;;11.10;;
4148;SDS011;2088;51.032;7.082;2023-04-23T01:02:08;14.90;;;10.37;;
4148;SDS011;2088;51.032;7.082;2023-04-23T01:04:36;18.83;;;11.37;;
4148;SDS011;2088;51.032;7.082;2023-04-23T01:07:04;22.20;;;12.40;;
4148;SDS011;2088;51.032;7.082;2023-04-23T01:09:31;17.73;;;10.87;;
4148;SDS011;2088;51.032;7.082;2023-04-23T01:11:58;17.37;;;9.90;;
4148;SDS011;2088;51.032;7.082;2023-04-23T01:14:26;16.30;;;11.00;;
4148;SDS011;2088;51.032;7.082;2023-04-23T01:16:54;17.00;;;10.83;;
4148;SDS011;2088;51.032;7.082;2023-04-23T01:19:22;23.47;;;11.97;;
4148;SDS011;2088;51.032;7.082;2023-04-23T01:21:50;18.17;;;10.80;;
4148;SDS011;2088;51.032;7.082;2023-04-23T01:24:19;19.80;;;10.77;;
4148;SDS011;2088;51.032;7.082;2023-04-23T01:26:46;19.17;;;11.67;;
4148;SDS011;2088;51.032;7.082;2023-04-23T01:29:13;19.63;;;10.37;;
4148;SDS011;2088;51.032;7.082;2023-04-23T01:31:40;18.40;;;10.57;;
4148;SDS011;2088;51.032;7.082;2023-04-23T01:34:07;19.93;;;11.07;;
4148;SDS011;2088;51.032;7.082;2023-04-23T01:36:35;17.90;;;10.50;;
4148;SDS011;2088;51.032;7.082;2023-04-23T01:39:02;16.37;;;10.50;;
4148;SDS011;2088;51.032;7.082;2023-04-23T01:41:30;17.97;;;10.93;;
4148;SDS011;2088;51.032;7.082;2023-04-23T01:43:58;19.80;;;11.40;;
4148;SDS011;2088;51.032;7.082;2023-04-23T01:46:25;18.57;;;10.93;;
4148;SDS011;2088;51.032;7.082;2023-04-23T01:48:52;18.77;;;10.83;;
4148;SDS011;2088;51.032;7.082;2023-04-23T01:51:20;21.77;;;10.77;;
4148;SDS011;2088;51.032;7.082;2023-04-23T01:53:47;19.70;;;11.00;;
4148;SDS011;2088;51.032;7.082;2023-04-23T01:56:14;22.50;;;10.87;;
4148;SDS011;2088;51.032;7.082;2023-04-23T01:58:43;20.67;;;12.23;;
4148;SDS011;2088;51.032;7.082;2023-04-23T02:01:10;21.87;;;12.60;;
4148;SDS011;2088;51.032;7.082;2023-04-23T02:03:37;21.13;;;11.23;;
4148;SDS011;2088;51.032;7.082;2023-04-23T02:06:04;18.90;;;11.70;;
4148;SDS011;2088;51.032;7.082;2023-04-23T02:08:31;23.87;;;13.60;;
4148;SDS011;2088;51.032;7.082;2023-04-23T02:10:58;18.70;;;11.87;;
4148;SDS011;2088;51.032;7.082;2023-04-23T02:13:25;22.13;;;11.00;;
4148;SDS011;2088;51.032;7.082;2023-04-23T02:15:54;19.80;;;11.27;;
4148;SDS011;2088;51.032;7.082;2023-04-23T02:18:21;21.87;;;10.90;;
4148;SDS011;2088;51.032;7.082;2023-04-23T02:20:48;27.33;;;14.90;;
4148;SDS011;2088;51.032;7.082;2023-04-23T02:23:15;21.00;;;12.50;;
4148;SDS011;2088;51.032;7.082;2023-04-23T02:25:42;21.60;;;13.00;;
4148;SDS011;2088;51.032;7.082;2023-04-23T02:28:10;22.47;;;11.90;;
4148;SDS011;2088;51.032;7.082;2023-04-23T02:30:37;19.67;;;11.20;;
4148;SDS011;2088;51.032;7.082;2023-04-23T02:33:10;25.33;;;14.13;;
4148;SDS011;2088;51.032;7.082;2023-04-23T02:35:38;22.83;;;11.43;;
4148;SDS011;2088;51.032;7.082;2023-04-23T02:38:05;24.40;;;12.57;;
4148;SDS011;2088;51.032;7.082;2023-04-23T02:40:32;21.30;;;12.00;;
4148;SDS011;2088;51.032;7.082;2023-04-23T02:43:00;25.97;;;13.40;;
4148;SDS011;2088;51.032;7.082;2023-04-23T02:45:27;26.60;;;12.93;;
4148;SDS011;2088;51.032;7.082;2023-04-23T02:47:54;28.43;;;13.30;;
4148;SDS011;2088;51.032;7.082;2023-04-23T02:50:23;24.83;;;14.23;;
4148;SDS011;2088;51.032;7.082;2023-04-23T02:52:50;26.03;;;14.07;;
4148;SDS011;2088;51.032;7.082;2023-04-23T02:55:17;26.30;;;14.40;;
4148;SDS011;2088;51.032;7.082;2023-04-23T02:57:44;27.47;;;13.73;;
4148;SDS011;2088;51.032;7.082;2023-04-23T03:00:11;30.20;;;13.63;;
4148;SDS011;2088;51.032;7.082;2023-04-23T03:02:39;30.20;;;14.30;;
4148;SDS011;2088;51.032;7.082;2023-04-23T03:05:07;28.13;;;14.70;;
4148;SDS011;2088;51.032;7.082;2023-04-23T03:07:35;28.10;;;14.30;;
4148;SDS011;2088;51.032;7.082;2023-04-23T03:10:02;28.57;;;14.67;;
4148;SDS011;2088;51.032;7.082;2023-04-23T03:12:30;25.47;;;13.70;;
4148;SDS011;2088;51.032;7.082;2023-04-23T03:14:57;31.50;;;14.10;;
4148;SDS011;2088;51.032;7.082;2023-04-23T03:17:24;27.90;;;13.27;;
4148;SDS011;2088;51.032;7.082;2023-04-23T03:19:51;33.03;;;16.77;;
4148;SDS011;2088;51.032;7.082;2023-04-23T03:22:18;30.23;;;15.30;;
4148;SDS011;2088;51.032;7.082;2023-04-23T03:24:47;22.97;;;12.40;;
4148;SDS011;2088;51.032;7.082;2023-04-23T03:27:14;33.33;;;15.33;;
4148;SDS011;2088;51.032;7.082;2023-04-23T03:29:41;31.47;;;14.87;;
4148;SDS011;2088;51.032;7.082;2023-04-23T03:32:08;30.03;;;15.97;;
4148;SDS011;2088;51.032;7.082;2023-04-23T03:34:35;27.70;;;15.30;;
4148;SDS011;2088;51.032;7.082;2023-04-23T03:37:02;26.60;;;14.80;;
4148;SDS011;2088;51.032;7.082;2023-04-23T03:39:30;26.50;;;15.10;;
4148;SDS011;2088;51.032;7.082;2023-04-23T03:41:58;29.57;;;15.37;;
4148;SDS011;2088;51.032;7.082;2023-04-23T03:44:26;31.00;;;15.50;;
4148;SDS011;2088;51.032;7.082;2023-04-23T03:46:53;30.97;;;15.23;;
4148;SDS011;2088;51.032;7.082;2023-04-23T03:49:20;33.93;;;18.10;;
4148;SDS011;2088;51.032;7.082;2023-04-23T03:51:47;31.27;;;15.63;;
4148;SDS011;2088;51.032;7.082;2023-04-23T03:54:14;32.27;;;15.07;;
4148;SDS011;2088;51.032;7.082;2023-04-23T03:56:41;35.43;;;15.47;;
4148;SDS011;2088;51.032;7.082;2023-04-23T03:59:09;30.20;;;16.03;;
4148;SDS011;2088;51.032;7.082;2023-04-23T04:01:36;31.70;;;14.70;;
4148;SDS011;2088;51.032;7.082;2023-04-23T04:04:03;29.27;;;14.80;;
4148;SDS011;2088;51.032;7.082;2023-04-23T04:06:30;21.83;;;11.73;;
4148;SDS011;2088;51.032;7.082;2023-04-23T04:08:57;21.67;;;13.00;;
4148;SDS011;2088;51.032;7.082;2023-04-23T04:11:24;20.60;;;11.43;;
4148;SDS011;2088;51.032;7.082;2023-04-23T04:13:51;21.87;;;12.60;;
4148;SDS011;2088;51.032;7.082;2023-04-23T04:16:20;27.80;;;13.13;;
4148;SDS011;2088;51.032;7.082;2023-04-23T04:18:47;26.13;;;12.97;;
4148;SDS011;2088;51.032;7.082;2023-04-23T04:21:14;19.17;;;10.93;;
4148;SDS011;2088;51.032;7.082;2023-04-23T04:23:43;19.50;;;11.47;;
4148;SDS011;2088;51.032;7.082;2023-04-23T04:26:10;24.53;;;12.80;;
4148;SDS011;2088;51.032;7.082;2023-04-23T04:28:38;20.17;;;11.33;;
4148;SDS011;2088;51.032;7.082;2023-04-23T04:31:05;22.33;;;13.03;;
4148;SDS011;2088;51.032;7.082;2023-04-23T04:33:33;21.40;;;10.37;;
4148;SDS011;2088;51.032;7.082;2023-04-23T04:36:03;22.63;;;11.60;;
4148;SDS011;2088;51.032;7.082;2023-04-23T04:38:32;17.33;;;10.90;;
4148;SDS011;2088;51.032;7.082;2023-04-23T04:41:01;19.00;;;12.20;;
4148;SDS011;2088;51.032;7.082;2023-04-23T04:43:29;17.70;;;10.60;;
4148;SDS011;2088;51.032;7.082;2023-04-23T04:45:56;20.03;;;11.30;;
4148;SDS011;2088;51.032;7.082;2023-04-23T04:48:24;20.03;;;9.87;;
4148;SDS011;2088;51.032;7.082;2023-04-23T04:50:52;17.07;;;9.97;;
4148;SDS011;2088;51.032;7.082;2023-04-23T04:53:19;20.77;;;10.27;;
4148;SDS011;2088;51.032;7.082;2023-04-23T04:55:46;18.97;;;10.03;;
4148;SDS011;2088;51.032;7.082;2023-04-23T04:58:13;15.00;;;9.50;;
4148;SDS011;2088;51.032;7.082;2023-04-23T05:00:40;17.13;;;10.17;;
4148;SDS011;2088;51.032;7.082;2023-04-23T05:03:08;15.23;;;9.90;;
4148;SDS011;2088;51.032;7.082;2023-04-23T05:05:35;17.57;;;9.97;;
4148;SDS011;2088;51.032;7.082;2023-04-23T05:08:03;16.93;;;10.10;;
4148;SDS011;2088;51.032;7.082;2023-04-23T05:10:31;14.93;;;9.27;;
4148;SDS011;2088;51.032;7.082;2023-04-23T05:12:58;23.63;;;10.97;;
4148;SDS011;2088;51.032;7.082;2023-04-23T05:15:25;14.87;;;9.73;;
4148;SDS011;2088;51.032;7.082;2023-04-23T05:17:52;15.90;;;9.23;;
4148;SDS011;2088;51.032;7.082;2023-04-23T05:20:19;16.03;;;9.63;;
4148;SDS011;2088;51.032;7.082;2023-04-23T05:22:47;15.33;;;9.43;;
4148;SDS011;2088;51.032;7.082;2023-04-23T05:25:15;12.90;;;9.30;;
4148;SDS011;2088;51.032;7.082;2023-04-23T05:27:42;14.57;;;9.17;;
4148;SDS011;2088;51.032;7.082;2023-04-23T05:30:10;15.10;;;8.00;;
4148;SDS011;2088;51.032;7.082;2023-04-23T05:32:37;14.97;;;9.67;;
4148;SDS011;2088;51.032;7.082;2023-04-23T05:35:04;12.43;;;7.97;;
4148;SDS011;2088;51.032;7.082;2023-04-23T05:37:32;23.03;;;9.00;;
4148;SDS011;2088;51.032;7.082;2023-04-23T05:39:59;11.00;;;7.57;;
4148;SDS011;2088;51.032;7.082;2023-04-23T05:42:27;11.30;;;8.50;;
4148;SDS011;2088;51.032;7.082;2023-04-23T05:44:55;14.67;;;8.07;;
4148;SDS011;2088;51.032;7.082;2023-04-23T05:47:22;14.60;;;8.67;;
4148;SDS011;2088;51.032;7.082;2023-04-23T05:49:49;11.80;;;7.20;;
4148;SDS011;2088;51.032;7.082;2023-04-23T05:52:16;14.30;;;8.50;;
4148;SDS011;2088;51.032;7.082;2023-04-23T05:54:43;10.80;;;7.70;;
4148;SDS011;2088;51.032;7.082;2023-04-23T05:57:10;14.90;;;6.87;;
4148;SDS011;2088;51.032;7.082;2023-04-23T05:59:38;9.20;;;7.20;;
4148;SDS011;2088;51.032;7.082;2023-04-23T06:02:06;12.43;;;7.77;;
4148;SDS011;2088;51.032;7.082;2023-04-23T06:04:33;12.20;;;7.53;;
4148;SDS011;2088;51.032;7.082;2023-04-23T06:07:00;14.00;;;8.23;;
4148;SDS011;2088;51.032;7.082;2023-04-23T06:09:27;12.73;;;6.90;;
4148;SDS011;2088;51.032;7.082;2023-04-23T06:11:54;19.07;;;7.93;;
4148;SDS011;2088;51.032;7.082;2023-04-23T06:14:21;9.00;;;6.83;;
4148;SDS011;2088;51.032;7.082;2023-04-23T06:16:49;7.80;;;6.87;;
4148;SDS011;2088;51.032;7.082;2023-04-23T06:19:16;9.87;;;7.47;;
4148;SDS011;2088;51.032;7.082;2023-04-23T06:21:43;9.87;;;7.03;;
4148;SDS011;2088;51.032;7.082;2023-04-23T06:24:10;11.80;;;7.07;;
4148;SDS011;2088;51.032;7.082;2023-04-23T06:26:38;8.50;;;6.37;;
4148;SDS011;2088;51.032;7.082;2023-04-23T06:29:05;12.90;;;8.27;;
4148;SDS011;2088;51.032;7.082;2023-04-23T06:31:32;11.00;;;7.10;;
4148;SDS011;2088;51.032;7.082;2023-04-23T06:34:00;8.37;;;6.37;;
4148;SDS011;2088;51.032;7.082;2023-04-23T06:36:27;8.70;;;6.60;;
4148;SDS011;2088;51.032;7.082;2023-04-23T06:38:54;9.63;;;6.70;;
4148;SDS011;2088;51.032;7.082;2023-04-23T06:41:21;8.57;;;6.10;;
4148;SDS011;2088;51.032;7.082;2023-04-23T06:43:49;9.80;;;6.73;;
4148;SDS011;2088;51.032;7.082;2023-04-23T06:46:16;7.63;;;5.93;;
4148;SDS011;2088;51.032;7.082;2023-04-23T06:48:43;8.93;;;5.63;;
4148;SDS011;2088;51.032;7.082;2023-04-23T06:51:11;8.73;;;6.13;;
4148;SDS011;2088;51.032;7.082;2023-04-23T06:53:38;7.70;;;5.90;;
4148;SDS011;2088;51.032;7.082;2023-04-23T06:56:05;7.53;;;6.00;;
4148;SDS011;2088;51.032;7.082;2023-04-23T06:58:32;6.67;;;5.07;;
4148;SDS011;2088;51.032;7.082;2023-04-23T07:01:00;8.00;;;5.50;;
4148;SDS011;2088;51.032;7.082;2023-04-23T07:03:28;8.33;;;5.63;;
4148;SDS011;2088;51.032;7.082;2023-04-23T07:05:56;15.03;;;5.63;;
4148;SDS011;2088;51.032;7.082;2023-04-23T07:08:24;8.90;;;5.57;;
4148;SDS011;2088;51.032;7.082;2023-04-23T07:10:51;5.93;;;4.90;;
4148;SDS011;2088;51.032;7.082;2023-04-23T07:13:18;6.97;;;5.80;;
4148;SDS011;2088;51.032;7.082;2023-04-23T07:15:45;6.63;;;5.93;;
4148;SDS011;2088;51.032;7.082;2023-04-23T07:18:13;8.43;;;4.90;;
4148;SDS011;2088;51.032;7.082;2023-04-23T07:20:40;10.30;;;5.30;;
4148;SDS011;2088;51.032;7.082;2023-04-23T07:23:07;8.83;;;6.03;;
4148;SDS011;2088;51.032;7.082;2023-04-23T07:25:35;6.40;;;5.20;;
4148;SDS011;2088;51.032;7.082;2023-04-23T07:28:03;9.77;;;5.50;;
4148;SDS011;2088;51.032;7.082;2023-04-23T07:30:30;6.40;;;4.40;;
4148;SDS011;2088;51.032;7.082;2023-04-23T07:32:57;8.90;;;4.47;;
4148;SDS011;2088;51.032;7.082;2023-04-23T07:35:24;4.90;;;3.90;;
4148;SDS011;2088;51.032;7.082;2023-04-23T07:37:52;3.93;;;3.57;;
4148;SDS011;2088;51.032;7.082;2023-04-23T07:40:21;5.63;;;4.13;;
4148;SDS011;2088;51.032;7.082;2023-04-23T07:42:50;5.77;;;4.30;;
4148;SDS011;2088;51.032;7.082;2023-04-23T07:45:17;7.40;;;4.50;;
4148;SDS011;2088;51.032;7.082;2023-04-23T07:47:44;5.63;;;4.43;;
4148;SDS011;2088;51.032;7.082;2023-04-23T07:50:11;4.90;;;4.17;;
4148;SDS011;2088;51.032;7.082;2023-04-23T07:52:39;5.47;;;4.10;;
4148;SDS011;2088;51.032;7.082;2023-04-23T07:55:06;6.77;;;4.00;;
4148;SDS011;2088;51.032;7.082;2023-04-23T07:57:33;4.70;;;4.27;;
4148;SDS011;2088;51.032;7.082;2023-04-23T08:00:02;5.07;;;3.70;;
4148;SDS011;2088;51.032;7.082;2023-04-23T08:02:29;6.27;;;4.43;;
4148;SDS011;2088;51.032;7.082;2023-04-23T08:04:56;3.43;;;3.13;;
4148;SDS011;2088;51.032;7.082;2023-04-23T08:07:23;4.47;;;3.67;;
4148;SDS011;2088;51.032;7.082;2023-04-23T08:09:50;6.20;;;3.60;;
4148;SDS011;2088;51.032;7.082;2023-04-23T08:12:18;3.77;;;3.30;;
4148;SDS011;2088;51.032;7.082;2023-04-23T08:14:45;6.37;;;3.10;;
4148;SDS011;2088;51.032;7.082;2023-04-23T08:17:13;3.30;;;2.87;;
4148;SDS011;2088;51.032;7.082;2023-04-23T08:19:40;3.80;;;3.40;;
4148;SDS011;2088;51.032;7.082;2023-04-23T08:22:07;6.27;;;2.97;;
4148;SDS011;2088;51.032;7.082;2023-04-23T08:24:34;6.93;;;3.10;;
4148;SDS011;2088;51.032;7.082;2023-04-23T08:27:01;3.70;;;2.73;;
4148;SDS011;2088;51.032;7.082;2023-04-23T08:29:28;3.10;;;2.80;;
4148;SDS011;2088;51.032;7.082;2023-04-23T08:31:55;3.87;;;3.00;;
4148;SDS011;2088;51.032;7.082;2023-04-23T08:34:24;4.80;;;2.83;;
4148;SDS011;2088;51.032;7.082;2023-04-23T08:36:51;4.60;;;2.97;;
4148;SDS011;2088;51.032;7.082;2023-04-23T08:39:18;6.90;;;4.00;;
4148;SDS011;2088;51.032;7.082;2023-04-23T08:41:48;8.43;;;2.43;;
4148;SDS011;2088;51.032;7.082;2023-04-23T08:44:19;8.43;;;3.20;;
4148;SDS011;2088;51.032;7.082;2023-04-23T08:46:47;2.97;;;2.67;;
4148;SDS011;2088;51.032;7.082;2023-04-23T08:49:15;3.60;;;2.57;;
4148;SDS011;2088;51.032;7.082;2023-04-23T08:51:45;3.80;;;2.43;;
4148;SDS011;2088;51.032;7.082;2023-04-23T08:54:14;7.53;;;2.80;;
4148;SDS011;2088;51.032;7.082;2023-04-23T08:56:42;3.67;;;2.30;;
4148;SDS011;2088;51.032;7.082;2023-04-23T08:59:09;5.70;;;3.53;;
4148;SDS011;2088;51.032;7.082;2023-04-23T09:01:36;2.77;;;2.10;;
4148;SDS011;2088;51.032;7.082;2023-04-23T09:04:04;3.03;;;2.60;;
4148;SDS011;2088;51.032;7.082;2023-04-23T09:06:31;3.23;;;2.33;;
4148;SDS011;2088;51.032;7.082;2023-04-23T09:08:59;2.17;;;1.97;;
4148;SDS011;2088;51.032;7.082;2023-04-23T09:11:26;3.03;;;2.03;;
4148;SDS011;2088;51.032;7.082;2023-04-23T09:13:54;2.73;;;2.07;;
4148;SDS011;2088;51.032;7.082;2023-04-23T09:16:22;3.13;;;2.23;;
4148;SDS011;2088;51.032;7.082;2023-04-23T09:18:49;3.30;;;2.63;;
4148;SDS011;2088;51.032;7.082;2023-04-23T09:21:16;2.47;;;2.27;;
4148;SDS011;2088;51.032;7.082;2023-04-23T09:23:43;4.83;;;1.90;;
4148;SDS011;2088;51.032;7.082;2023-04-23T09:26:12;2.80;;;2.47;;
4148;SDS011;2088;51.032;7.082;2023-04-23T09:28:45;5.67;;;2.87;;
4148;SDS011;2088;51.032;7.082;2023-04-23T09:31:14;2.53;;;2.33;;
4148;SDS011;2088;51.032;7.082;2023-04-23T09:33:41;4.33;;;2.70;;
4148;SDS011;2088;51.032;7.082;2023-04-23T09:36:08;3.90;;;2.10;;
4148;SDS011;2088;51.032;7.082;2023-04-23T09:38:38;3.03;;;2.10;;
4148;SDS011;2088;51.032;7.082;2023-04-23T09:41:20;2.97;;;2.33;;
4148;SDS011;2088;51.032;7.082;2023-04-23T09:43:47;2.57;;;1.87;;
4148;SDS011;2088;51.032;7.082;2023-04-23T09:46:14;2.40;;;1.90;;
4148;SDS011;2088;51.032;7.082;2023-04-23T09:48:41;2.47;;;1.90;;
4148;SDS011;2088;51.032;7.082;2023-04-23T09:51:08;5.50;;;1.87;;
4148;SDS011;2088;51.032;7.082;2023-04-23T09:53:39;3.00;;;1.90;;
4148;SDS011;2088;51.032;7.082;2023-04-23T09:56:07;3.87;;;2.40;;
4148;SDS011;2088;51.032;7.082;2023-04-23T09:58:35;4.17;;;1.73;;
4148;SDS011;2088;51.032;7.082;2023-04-23T10:01:06;2.97;;;2.00;;
4148;SDS011;2088;51.032;7.082;2023-04-23T10:03:33;1.50;;;1.40;;
4148;SDS011;2088;51.032;7.082;2023-04-23T10:06:00;3.10;;;1.77;;
4148;SDS011;2088;51.032;7.082;2023-04-23T10:08:28;6.67;;;1.40;;
4148;SDS011;2088;51.032;7.082;2023-04-23T10:10:57;4.03;;;1.40;;
4148;SDS011;2088;51.032;7.082;2023-04-23T10:13:24;2.63;;;1.53;;
4148;SDS011;2088;51.032;7.082;2023-04-23T10:15:53;3.00;;;1.30;;
4148;SDS011;2088;51.032;7.082;2023-04-23T10:18:21;3.73;;;1.40;;
4148;SDS011;2088;51.032;7.082;2023-04-23T10:20:48;3.73;;;1.80;;
4148;SDS011;2088;51.032;7.082;2023-04-23T10:23:16;2.90;;;1.50;;
4148;SDS011;2088;51.032;7.082;2023-04-23T10:25:43;1.83;;;1.30;;
4148;SDS011;2088;51.032;7.082;2023-04-23T10:28:11;1.20;;;1.10;;
4148;SDS011;2088;51.032;7.082;2023-04-23T10:30:39;2.80;;;1.70;;
4148;SDS011;2088;51.032;7.082;2023-04-23T10:33:08;2.23;;;1.50;;
4148;SDS011;2088;51.032;7.082;2023-04-23T10:35:36;1.73;;;1.10;;
4148;SDS011;2088;51.032;7.082;2023-04-23T10:38:04;4.60;;;1.80;;
4148;SDS011;2088;51.032;7.082;2023-04-23T10:40:31;1.80;;;1.50;;
4148;SDS011;2088;51.032;7.082;2023-04-23T10:42:59;1.60;;;1.10;;
4148;SDS011;2088;51.032;7.082;2023-04-23T10:45:29;2.43;;;1.50;;
4148;SDS011;2088;51.032;7.082;2023-04-23T10:47:56;2.43;;;1.40;;
4148;SDS011;2088;51.032;7.082;2023-04-23T10:50:25;2.70;;;1.67;;
4148;SDS011;2088;51.032;7.082;2023-04-23T10:52:53;3.10;;;1.07;;
4148;SDS011;2088;51.032;7.082;2023-04-23T10:55:21;3.00;;;1.00;;
4148;SDS011;2088;51.032;7.082;2023-04-23T10:57:55;5.53;;;1.30;;
4148;SDS011;2088;51.032;7.082;2023-04-23T11:00:23;1.40;;;1.30;;
4148;SDS011;2088;51.032;7.082;2023-04-23T11:02:50;2.70;;;1.30;;
4148;SDS011;2088;51.032;7.082;2023-04-23T11:05:18;2.40;;;1.10;;
4148;SDS011;2088;51.032;7.082;2023-04-23T11:10:53;1.33;;;1.20;;
4148;SDS011;2088;51.032;7.082;2023-04-23T11:13:21;2.53;;;1.00;;
4148;SDS011;2088;51.032;7.082;2023-04-23T11:18:44;1.23;;;1.10;;
4148;SDS011;2088;51.032;7.082;2023-04-23T11:21:20;1.77;;;0.93;;
4148;SDS011;2088;51.032;7.082;2023-04-23T11:23:47;2.50;;;1.20;;
4148;SDS011;2088;51.032;7.082;2023-04-23T11:26:15;2.20;;;1.83;;
4148;SDS011;2088;51.032;7.082;2023-04-23T11:28:43;2.53;;;1.20;;
4148;SDS011;2088;51.032;7.082;2023-04-23T11:31:10;1.30;;;0.97;;
4148;SDS011;2088;51.032;7.082;2023-04-23T11:33:37;4.27;;;1.70;;
4148;SDS011;2088;51.032;7.082;2023-04-23T11:36:05;2.60;;;1.13;;
4148;SDS011;2088;51.032;7.082;2023-04-23T11:38:32;2.73;;;1.10;;
4148;SDS011;2088;51.032;7.082;2023-04-23T11:41:00;1.83;;;1.40;;
4148;SDS011;2088;51.032;7.082;2023-04-23T11:43:30;3.57;;;1.47;;
4148;SDS011;2088;51.032;7.082;2023-04-23T11:45:59;2.13;;;1.53;;
4148;SDS011;2088;51.032;7.082;2023-04-23T11:48:26;2.60;;;1.80;;
4148;SDS011;2088;51.032;7.082;2023-04-23T11:50:53;3.33;;;1.23;;
4148;SDS011;2088;51.032;7.082;2023-04-23T11:53:20;1.63;;;0.80;;
4148;SDS011;2088;51.032;7.082;2023-04-23T11:55:48;2.43;;;1.20;;
4148;SDS011;2088;51.032;7.082;2023-04-23T11:58:16;3.57;;;1.30;;
4148;SDS011;2088;51.032;7.082;2023-04-23T12:00:45;3.27;;;1.07;;
4148;SDS011;2088;51.032;7.082;2023-04-23T12:03:13;5.50;;;1.03;;
4148;SDS011;2088;51.032;7.082;2023-04-23T12:05:40;4.00;;;1.10;;
4148;SDS011;2088;51.032;7.082;2023-04-23T12:08:08;2.80;;;1.70;;
4148;SDS011;2088;51.032;7.082;2023-04-23T12:10:40;3.30;;;1.00;;
4148;SDS011;2088;51.032;7.082;2023-04-23T12:13:12;2.80;;;1.10;;
4148;SDS011;2088;51.032;7.082;2023-04-23T12:15:44;3.00;;;1.30;;
4148;SDS011;2088;51.032;7.082;2023-04-23T12:18:11;2.30;;;1.40;;
4148;SDS011;2088;51.032;7.082;2023-04-23T12:20:38;4.13;;;1.07;;
4148;SDS011;2088;51.032;7.082;2023-04-23T12:23:05;1.30;;;0.80;;
4148;SDS011;2088;51.032;7.082;2023-04-23T12:25:33;1.70;;;1.00;;
4148;SDS011;2088;51.032;7.082;2023-04-23T12:28:01;2.77;;;1.30;;
4148;SDS011;2088;51.032;7.082;2023-04-23T12:30:28;4.00;;;1.30;;
4148;SDS011;2088;51.032;7.082;2023-04-23T12:32:59;12.33;;;1.50;;
4148;SDS011;2088;51.032;7.082;2023-04-23T12:35:36;1.30;;;0.80;;
4148;SDS011;2088;51.032;7.082;2023-04-23T12:38:03;1.43;;;0.70;;
4148;SDS011;2088;51.032;7.082;2023-04-23T12:40:30;5.23;;;1.07;;
4148;SDS011;2088;51.032;7.082;2023-04-23T12:42:58;4.67;;;1.17;;
4148;SDS011;2088;51.032;7.082;2023-04-23T12:45:25;1.97;;;1.37;;
4148;SDS011;2088;51.032;7.082;2023-04-23T12:47:52;1.87;;;0.90;;
4148;SDS011;2088;51.032;7.082;2023-04-23T12:50:20;2.47;;;1.00;;
4148;SDS011;2088;51.032;7.082;2023-04-23T12:52:47;2.50;;;1.00;;
4148;SDS011;2088;51.032;7.082;2023-04-23T12:55:15;3.00;;;0.97;;
4148;SDS011;2088;51.032;7.082;2023-04-23T12:57:42;2.30;;;1.17;;
4148;SDS011;2088;51.032;7.082;2023-04-23T13:00:09;2.27;;;1.13;;
4148;SDS011;2088;51.032;7.082;2023-04-23T13:02:36;1.17;;;0.70;;
4148;SDS011;2088;51.032;7.082;2023-04-23T13:05:04;2.70;;;0.87;;
4148;SDS011;2088;51.032;7.082;2023-04-23T13:07:32;2.13;;;1.00;;
4148;SDS011;2088;51.032;7.082;2023-04-23T13:09:59;3.40;;;0.80;;
4148;SDS011;2088;51.032;7.082;2023-04-23T13:12:26;2.50;;;1.00;;
4148;SDS011;2088;51.032;7.082;2023-04-23T13:14:54;3.27;;;1.00;;
4148;SDS011;2088;51.032;7.082;2023-04-23T13:17:21;2.50;;;1.00;;
4148;SDS011;2088;51.032;7.082;2023-04-23T13:19:50;4.30;;;0.90;;
4148;SDS011;2088;51.032;7.082;2023-04-23T13:22:17;3.00;;;0.90;;
4148;SDS011;2088;51.032;7.082;2023-04-23T13:24:45;3.00;;;2.37;;
4148;SDS011;2088;51.032;7.082;2023-04-23T13:27:12;2.80;;;1.30;;
4148;SDS011;2088;51.032;7.082;2023-04-23T13:29:40;2.30;;;0.83;;
4148;SDS011;2088;51.032;7.082;2023-04-23T13:32:07;2.13;;;1.10;;
4148;SDS011;2088;51.032;7.082;2023-04-23T13:34:34;3.83;;;1.20;;
4148;SDS011;2088;51.032;7.082;2023-04-23T13:37:01;3.33;;;1.10;;
4148;SDS011;2088;51.032;7.082;2023-04-23T13:39:29;1.53;;;0.80;;
4148;SDS011;2088;51.032;7.082;2023-04-23T13:41:58;2.70;;;1.27;;
4148;SDS011;2088;51.032;7.082;2023-04-23T13:44:25;1.67;;;1.57;;
4148;SDS011;2088;51.032;7.082;2023-04-23T13:46:52;2.47;;;1.17;;
4148;SDS011;2088;51.032;7.082;2023-04-23T13:49:21;1.60;;;1.20;;
4148;SDS011;2088;51.032;7.082;2023-04-23T13:51:48;2.03;;;1.00;;
4148;SDS011;2088;51.032;7.082;2023-04-23T13:54:18;2.33;;;1.00;;
4148;SDS011;2088;51.032;7.082;2023-04-23T13:56:45;1.70;;;1.10;;
4148;SDS011;2088;51.032;7.082;2023-04-23T13:59:13;1.50;;;0.80;;
4148;SDS011;2088;51.032;7.082;2023-04-23T14:01:40;6.97;;;1.07;;
4148;SDS011;2088;51.032;7.082;2023-04-23T14:04:07;4.53;;;1.10;;
4148;SDS011;2088;51.032;7.082;2023-04-23T14:06:34;3.33;;;1.27;;
4148;SDS011;2088;51.032;7.082;2023-04-23T14:09:01;4.30;;;1.43;;
4148;SDS011;2088;51.032;7.082;2023-04-23T14:11:29;1.70;;;1.30;;
4148;SDS011;2088;51.032;7.082;2023-04-23T14:13:56;1.40;;;1.10;;
4148;SDS011;2088;51.032;7.082;2023-04-23T14:16:26;6.13;;;1.20;;
4148;SDS011;2088;51.032;7.082;2023-04-23T14:18:53;10.50;;;4.47;;
4148;SDS011;2088;51.032;7.082;2023-04-23T14:21:20;2.70;;;1.00;;
4148;SDS011;2088;51.032;7.082;2023-04-23T14:23:48;2.50;;;1.47;;
4148;SDS011;2088;51.032;7.082;2023-04-23T14:26:26;2.40;;;1.50;;
4148;SDS011;2088;51.032;7.082;2023-04-23T14:28:55;2.80;;;0.97;;
4148;SDS011;2088;51.032;7.082;2023-04-23T14:31:23;1.87;;;1.50;;
4148;SDS011;2088;51.032;7.082;2023-04-23T14:33:52;1.53;;;1.20;;
4148;SDS011;2088;51.032;7.082;2023-04-23T14:36:20;3.67;;;1.40;;
4148;SDS011;2088;51.032;7.082;2023-04-23T14:38:47;3.33;;;1.40;;
4148;SDS011;2088;51.032;7.082;2023-04-23T14:41:14;1.50;;;1.17;;
4148;SDS011;2088;51.032;7.082;2023-04-23T14:43:41;5.43;;;1.67;;
4148;SDS011;2088;51.032;7.082;2023-04-23T14:46:08;5.43;;;1.30;;
4148;SDS011;2088;51.032;7.082;2023-04-23T14:48:35;1.63;;;1.10;;
4148;SDS011;2088;51.032;7.082;2023-04-23T14:51:03;6.40;;;1.33;;
4148;SDS011;2088;51.032;7.082;2023-04-23T14:53:31;2.90;;;1.90;;
4148;SDS011;2088;51.032;7.082;2023-04-23T14:55:58;1.57;;;1.07;;
4148;SDS011;2088;51.032;7.082;2023-04-23T14:58:25;1.73;;;1.00;;
4148;SDS011;2088;51.032;7.082;2023-04-23T15:00:52;3.03;;;1.60;;
4148;SDS011;2088;51.032;7.082;2023-04-23T15:03:19;3.33;;;1.40;;
4148;SDS011;2088;51.032;7.082;2023-04-23T15:05:46;2.43;;;1.80;;
4148;SDS011;2088;51.032;7.082;2023-04-23T15:08:14;1.67;;;1.57;;
4148;SDS011;2088;51.032;7.082;2023-04-23T15:10:41;3.70;;;1.37;;
4148;SDS011;2088;51.032;7.082;2023-04-23T15:13:23;5.20;;;1.93;;